createdAt,value
2017-06-20T00:01:01.219Z,18.35
2017-06-20T00:03:28.753Z,18.55
2017-06-20T00:05:56.272Z,18.37
2017-06-20T00:08:23.834Z,18.44
2017-06-20T00:10:51.349Z,18.30
2017-06-20T00:13:18.958Z,18.28
2017-06-20T00:15:46.541Z,18.33
2017-06-20T00:18:14.140Z,18.28
2017-06-20T00:20:41.933Z,18.38
2017-06-20T00:23:09.506Z,17.96
2017-06-20T00:25:37.045Z,18.05
2017-06-20T00:28:04.556Z,18.09
2017-06-20T00:30:32.223Z,18.19
2017-06-20T00:32:59.791Z,18.32
2017-06-20T00:35:27.315Z,18.24
2017-06-20T00:37:54.904Z,18.25
2017-06-20T00:40:22.445Z,18.19
2017-06-20T00:42:49.982Z,18.15
2017-06-20T00:45:17.568Z,18.19
2017-06-20T00:47:45.353Z,17.97
2017-06-20T00:50:12.859Z,18.10
2017-06-20T00:52:40.401Z,17.66
2017-06-20T00:55:07.920Z,17.57
2017-06-20T00:57:35.717Z,17.58
2017-06-20T01:00:04.433Z,17.32
2017-06-20T01:02:31.985Z,17.49
2017-06-20T01:04:59.523Z,17.33
2017-06-20T01:07:27.102Z,17.87
2017-06-20T01:09:55.289Z,17.94
2017-06-20T01:12:22.812Z,17.69
2017-06-20T01:14:50.357Z,17.92
2017-06-20T01:17:17.874Z,17.94
2017-06-20T01:19:45.401Z,17.89
2017-06-20T01:22:12.945Z,17.99
2017-06-20T01:24:40.456Z,17.95
2017-06-20T01:27:07.978Z,17.92
2017-06-20T01:29:35.573Z,17.72
2017-06-20T01:32:03.222Z,17.74
2017-06-20T01:34:31.125Z,17.89
2017-06-20T01:36:58.795Z,18.05
2017-06-20T01:39:26.583Z,17.56
2017-06-20T01:41:54.340Z,17.11
2017-06-20T01:44:21.883Z,17.64
2017-06-20T01:46:49.481Z,17.79
2017-06-20T01:49:17.065Z,17.62
2017-06-20T01:51:44.635Z,17.56
2017-06-20T01:54:12.256Z,17.31
2017-06-20T01:56:39.879Z,17.54
2017-06-20T01:59:07.486Z,17.66
2017-06-20T02:01:35.942Z,17.54
2017-06-20T02:04:03.904Z,17.58
2017-06-20T02:06:31.825Z,17.62
2017-06-20T02:08:59.451Z,17.47
2017-06-20T02:11:27.034Z,17.18
2017-06-20T02:13:56.332Z,17.34
2017-06-20T02:16:26.471Z,17.43
2017-06-20T02:18:54.177Z,17.31
2017-06-20T02:21:21.744Z,17.31
2017-06-20T02:23:49.330Z,17.34
2017-06-20T02:26:16.837Z,16.87
2017-06-20T02:28:44.336Z,17.19
2017-06-20T02:31:11.914Z,17.00
2017-06-20T02:33:39.433Z,16.98
2017-06-20T02:36:06.969Z,16.99
2017-06-20T02:38:34.555Z,16.56
2017-06-20T02:41:02.052Z,16.07
2017-06-20T02:43:29.553Z,16.14
2017-06-20T02:45:57.157Z,16.72
2017-06-20T02:48:24.676Z,16.84
2017-06-20T02:50:52.194Z,17.05
2017-06-20T02:53:19.753Z,17.10
2017-06-20T02:55:47.298Z,16.99
2017-06-20T02:58:14.864Z,16.93
2017-06-20T03:00:42.447Z,16.63
2017-06-20T03:03:09.963Z,16.87
2017-06-20T03:05:37.470Z,17.07
2017-06-20T03:08:05.097Z,17.04
2017-06-20T03:10:32.750Z,16.88
2017-06-20T03:13:00.269Z,16.82
2017-06-20T03:15:27.841Z,16.87
2017-06-20T03:17:55.360Z,17.04
2017-06-20T03:20:22.920Z,17.11
2017-06-20T03:22:50.532Z,17.03
2017-06-20T03:25:18.050Z,17.00
2017-06-20T03:27:45.557Z,17.10
2017-06-20T03:30:13.206Z,17.00
2017-06-20T03:32:40.699Z,16.77
2017-06-20T03:35:08.226Z,16.83
2017-06-20T03:37:35.836Z,17.06
2017-06-20T03:40:03.378Z,16.85
2017-06-20T03:42:30.890Z,16.21
2017-06-20T03:44:58.445Z,16.79
2017-06-20T03:47:26.282Z,16.71
2017-06-20T03:49:53.820Z,16.79
2017-06-20T03:52:21.450Z,17.08
2017-06-20T03:54:48.984Z,16.99
2017-06-20T03:57:16.489Z,16.82
2017-06-20T03:59:44.083Z,17.29
2017-06-20T04:02:11.667Z,17.42
2017-06-20T04:04:39.180Z,17.47
2017-06-20T04:07:06.704Z,17.44
2017-06-20T04:09:34.314Z,17.63
2017-06-20T04:12:01.868Z,17.66
2017-06-20T04:14:29.434Z,17.73
2017-06-20T04:16:56.994Z,17.82
2017-06-20T04:19:24.511Z,17.83
2017-06-20T04:21:52.088Z,18.01
2017-06-20T04:24:19.920Z,17.72
2017-06-20T04:26:48.132Z,17.11
2017-06-20T04:29:16.232Z,17.09
2017-06-20T04:31:44.602Z,17.79
2017-06-20T04:34:12.137Z,17.82
2017-06-20T04:36:39.716Z,17.96
2017-06-20T04:39:07.264Z,18.06
2017-06-20T04:41:34.776Z,18.21
2017-06-20T04:44:02.312Z,18.57
2017-06-20T04:46:29.877Z,18.52
2017-06-20T04:48:57.458Z,18.86
2017-06-20T04:51:25.116Z,18.99
2017-06-20T04:54:02.633Z,18.99
2017-06-20T04:56:30.164Z,19.08
2017-06-20T04:58:57.874Z,19.12
2017-06-20T05:01:33.205Z,19.15
2017-06-20T05:04:00.866Z,19.18
2017-06-20T05:06:35.861Z,19.43
2017-06-20T05:09:03.434Z,19.42
2017-06-20T05:11:31.197Z,18.71
2017-06-20T05:13:59.229Z,18.86
2017-06-20T05:16:26.766Z,18.87
2017-06-20T05:18:54.316Z,19.11
2017-06-20T05:21:21.919Z,19.16
2017-06-20T05:23:50.243Z,19.21
2017-06-20T05:26:18.002Z,19.35
2017-06-20T05:28:45.600Z,19.48
2017-06-20T05:31:13.799Z,19.66
2017-06-20T05:33:41.561Z,19.65
2017-06-20T05:36:09.097Z,19.79
2017-06-20T05:38:36.689Z,19.87
2017-06-20T05:41:04.434Z,20.04
2017-06-20T05:43:31.943Z,20.16
2017-06-20T05:45:59.548Z,20.34
2017-06-20T05:48:28.008Z,20.34
2017-06-20T05:50:55.612Z,20.52
2017-06-20T05:53:23.265Z,20.67
2017-06-20T05:55:50.806Z,20.72
2017-06-20T05:58:19.157Z,20.85
2017-06-20T06:00:46.776Z,20.99
2017-06-20T06:03:15.209Z,21.06
2017-06-20T06:05:43.123Z,21.17
2017-06-20T06:08:10.858Z,21.15
2017-06-20T06:10:38.380Z,21.39
2017-06-20T06:13:05.933Z,21.42
2017-06-20T06:15:33.494Z,21.32
2017-06-20T06:18:01.018Z,21.57
2017-06-20T06:20:28.526Z,21.77
2017-06-20T06:22:56.098Z,21.69
2017-06-20T06:25:23.707Z,21.46
2017-06-20T06:27:51.251Z,21.60
2017-06-20T06:30:18.895Z,21.63
2017-06-20T06:32:46.462Z,21.65
2017-06-20T06:35:13.985Z,21.66
2017-06-20T06:37:41.560Z,21.91
2017-06-20T06:40:09.109Z,21.97
2017-06-20T06:42:36.675Z,22.13
2017-06-20T06:45:04.290Z,22.07
2017-06-20T06:47:31.823Z,22.23
2017-06-20T06:49:59.354Z,22.44
2017-06-20T06:52:26.927Z,22.64
2017-06-20T06:54:54.434Z,22.71
2017-06-20T06:57:21.942Z,22.66
2017-06-20T06:59:49.504Z,22.98
2017-06-20T07:02:17.058Z,22.79
2017-06-20T07:04:44.571Z,23.02
2017-06-20T07:07:12.164Z,22.92
2017-06-20T07:09:39.786Z,22.95
2017-06-20T07:12:07.309Z,23.18
2017-06-20T07:14:34.859Z,23.12
2017-06-20T07:17:02.443Z,23.20
2017-06-20T07:19:29.968Z,23.35
2017-06-20T07:21:57.494Z,23.55
2017-06-20T07:24:25.034Z,23.77
2017-06-20T07:26:52.607Z,23.82
2017-06-20T07:29:20.113Z,24.11
2017-06-20T07:31:47.687Z,24.32
2017-06-20T07:34:15.208Z,24.34
2017-06-20T07:36:42.779Z,24.31
2017-06-20T07:39:10.330Z,24.34
2017-06-20T07:41:37.911Z,24.27
2017-06-20T07:44:05.430Z,24.31
2017-06-20T07:46:33.103Z,24.53
2017-06-20T07:49:00.613Z,24.67
2017-06-20T07:51:28.124Z,24.76
2017-06-20T07:53:55.680Z,24.83
2017-06-20T07:56:23.186Z,24.68
2017-06-20T07:58:50.690Z,24.86
2017-06-20T08:01:18.277Z,24.99
2017-06-20T08:03:45.820Z,25.07
2017-06-20T08:06:13.382Z,25.29
2017-06-20T08:08:40.914Z,25.28
2017-06-20T08:11:08.417Z,25.33
2017-06-20T08:13:35.994Z,25.26
2017-06-20T08:16:03.614Z,25.40
2017-06-20T08:18:31.126Z,25.56
2017-06-20T08:21:04.168Z,25.58
2017-06-20T08:23:31.678Z,25.58
2017-06-20T08:25:59.182Z,25.57
2017-06-20T08:28:26.716Z,25.70
2017-06-20T08:30:55.072Z,25.77
2017-06-20T08:33:22.631Z,26.05
2017-06-20T08:35:50.161Z,26.21
2017-06-20T08:38:17.710Z,26.34
2017-06-20T08:40:45.272Z,26.25
2017-06-20T08:43:12.803Z,26.24
2017-06-20T08:45:40.348Z,26.45
2017-06-20T08:48:07.875Z,26.46
2017-06-20T08:50:35.403Z,26.44
2017-06-20T08:53:02.948Z,26.49
2017-06-20T08:55:30.485Z,26.24
2017-06-20T08:57:58.046Z,26.54
2017-06-20T09:00:25.971Z,26.72
2017-06-20T09:02:53.477Z,26.88
2017-06-20T09:05:21.038Z,27.13
2017-06-20T09:07:48.628Z,27.04
2017-06-20T09:10:16.123Z,27.01
2017-06-20T09:12:43.621Z,27.19
2017-06-20T09:15:11.262Z,27.24
2017-06-20T09:17:38.777Z,27.19
2017-06-20T09:20:06.290Z,26.98
2017-06-20T09:22:33.866Z,27.22
2017-06-20T09:25:01.391Z,27.47
2017-06-20T09:27:28.908Z,27.66
2017-06-20T09:29:56.462Z,27.76
2017-06-20T09:32:24.078Z,27.61
2017-06-20T09:34:51.645Z,27.57
2017-06-20T09:37:19.202Z,27.61
2017-06-20T09:39:46.780Z,27.92
2017-06-20T09:42:14.412Z,28.06
2017-06-20T09:44:41.951Z,28.08
2017-06-20T09:47:09.581Z,28.34
2017-06-20T09:49:37.116Z,27.98
2017-06-20T09:52:04.671Z,28.07
2017-06-20T09:54:32.290Z,28.07
2017-06-20T09:56:59.934Z,28.01
2017-06-20T09:59:27.494Z,28.09
2017-06-20T10:01:55.071Z,28.09
2017-06-20T10:04:22.639Z,28.23
2017-06-20T10:06:50.232Z,28.27
2017-06-20T10:09:17.778Z,28.49
2017-06-20T10:11:45.340Z,28.44
2017-06-20T10:14:13.135Z,28.40
2017-06-20T10:16:40.766Z,28.64
2017-06-20T10:19:08.381Z,28.61
2017-06-20T10:21:35.890Z,28.74
2017-06-20T10:24:03.456Z,28.73
2017-06-20T10:26:30.986Z,28.89
2017-06-20T10:28:58.520Z,28.82
2017-06-20T10:31:26.209Z,28.92
2017-06-20T10:33:53.798Z,28.99
2017-06-20T10:36:21.349Z,29.13
2017-06-20T10:38:48.979Z,28.89
2017-06-20T10:41:16.541Z,28.78
2017-06-20T10:47:05.395Z,28.83
2017-06-20T10:49:36.863Z,28.78
2017-06-20T10:52:04.422Z,28.42
2017-06-20T10:54:35.708Z,28.41
2017-06-20T10:57:07.557Z,27.94
2017-06-20T10:59:42.233Z,27.85
2017-06-20T11:02:10.018Z,27.74
2017-06-20T11:04:37.577Z,27.61
2017-06-20T11:07:05.168Z,27.65
2017-06-20T11:09:32.760Z,27.54
2017-06-20T11:12:00.319Z,27.52
2017-06-20T11:14:27.874Z,27.56
2017-06-20T11:16:55.525Z,27.68
2017-06-20T11:19:23.088Z,27.53
2017-06-20T11:21:50.642Z,27.43
2017-06-20T11:24:18.289Z,27.33
2017-06-20T11:26:46.028Z,27.65
2017-06-20T11:29:13.638Z,27.53
2017-06-20T11:31:41.490Z,27.53
2017-06-20T11:34:09.114Z,27.38
2017-06-20T11:36:40.241Z,27.22
2017-06-20T11:39:07.870Z,25.60
2017-06-20T11:41:39.232Z,25.60
2017-06-20T11:44:06.851Z,25.59
2017-06-20T11:46:34.437Z,25.26
2017-06-20T11:49:02.002Z,25.14
2017-06-20T11:51:29.578Z,25.00
2017-06-20T11:53:57.182Z,25.03
2017-06-20T11:56:32.803Z,25.21
2017-06-20T11:59:00.406Z,25.22
2017-06-20T12:01:28.199Z,25.34
2017-06-20T12:03:59.601Z,25.18
2017-06-20T12:06:27.202Z,25.32
2017-06-20T12:08:54.771Z,25.47
2017-06-20T12:11:22.316Z,25.80
2017-06-20T12:13:49.918Z,25.86
2017-06-20T12:16:17.689Z,26.22
2017-06-20T12:18:45.438Z,26.73
2017-06-20T12:21:13.025Z,26.83
2017-06-20T12:23:44.880Z,27.16
2017-06-20T12:26:19.588Z,27.45
2017-06-20T12:28:47.168Z,27.36
2017-06-20T12:31:18.934Z,27.50
2017-06-20T12:33:46.623Z,27.67
2017-06-20T12:36:14.169Z,27.55
2017-06-20T12:38:41.753Z,27.74
2017-06-20T12:41:09.304Z,27.55
2017-06-20T12:43:36.927Z,27.58
2017-06-20T12:46:04.522Z,27.46
2017-06-20T12:48:32.289Z,27.50
2017-06-20T12:50:59.840Z,27.40
2017-06-20T12:53:27.434Z,27.50
2017-06-20T12:55:55.235Z,27.72
2017-06-20T12:58:22.772Z,27.80
2017-06-20T13:00:50.820Z,27.73
2017-06-20T13:03:18.413Z,27.81
2017-06-20T13:05:45.982Z,27.90
2017-06-20T13:08:13.592Z,27.88
2017-06-20T13:10:41.215Z,27.71
2017-06-20T13:13:08.806Z,27.66
2017-06-20T13:15:36.390Z,27.67
2017-06-20T13:18:03.969Z,27.52
2017-06-20T13:20:31.770Z,27.36
2017-06-20T13:23:20.261Z,27.36
2017-06-20T13:25:47.786Z,27.26
2017-06-20T13:28:15.354Z,27.24
2017-06-20T13:30:49.947Z,27.11
2017-06-20T13:33:17.558Z,27.43
2017-06-20T13:35:45.172Z,27.33
2017-06-20T13:38:20.437Z,27.40
2017-06-20T13:40:48.072Z,27.44
2017-06-20T13:43:15.657Z,27.58
2017-06-20T13:45:43.293Z,27.63
2017-06-20T13:48:10.802Z,27.74
2017-06-20T13:50:38.630Z,27.75
2017-06-20T13:53:06.197Z,27.77
2017-06-20T13:55:33.752Z,27.76
2017-06-20T13:58:01.299Z,27.78
2017-06-20T14:00:28.916Z,27.78
2017-06-20T14:02:56.661Z,27.73
2017-06-20T14:05:24.166Z,27.82
2017-06-20T14:07:51.739Z,27.91
2017-06-20T14:10:19.327Z,28.06
2017-06-20T14:12:46.892Z,27.86
2017-06-20T14:15:14.464Z,27.92
2017-06-20T14:17:42.053Z,27.83
2017-06-20T14:20:09.611Z,27.82
2017-06-20T14:22:37.269Z,27.76
2017-06-20T14:25:05.272Z,27.75
2017-06-20T14:27:32.816Z,27.74
2017-06-20T14:30:00.396Z,27.52
2017-06-20T14:32:29.537Z,27.56
2017-06-20T14:34:57.089Z,27.64
2017-06-20T14:37:24.652Z,27.54
2017-06-20T14:39:52.259Z,27.44
2017-06-20T14:42:19.901Z,27.33
2017-06-20T14:44:47.428Z,27.37
2017-06-20T14:47:15.000Z,27.33
2017-06-20T14:49:42.524Z,27.27
2017-06-20T14:52:10.065Z,27.21
2017-06-20T14:54:37.644Z,27.24
2017-06-20T14:57:05.231Z,27.26
2017-06-20T14:59:32.761Z,27.14
2017-06-20T15:02:00.495Z,27.17
2017-06-20T15:04:28.053Z,27.06
2017-06-20T15:06:55.643Z,27.11
2017-06-20T15:09:23.843Z,27.08
2017-06-20T15:11:51.454Z,27.13
2017-06-20T15:14:19.055Z,27.18
2017-06-20T15:16:46.637Z,27.17
2017-06-20T15:19:14.161Z,27.08
2017-06-20T15:21:41.978Z,27.11
2017-06-20T15:24:09.606Z,27.00
2017-06-20T15:26:37.186Z,26.99
2017-06-20T15:29:04.993Z,26.94
2017-06-20T15:31:32.577Z,26.92
2017-06-20T15:34:00.309Z,26.94
2017-06-20T15:36:27.862Z,26.93
2017-06-20T15:39:02.588Z,27.00
2017-06-20T15:41:38.572Z,26.96
2017-06-20T15:44:06.137Z,26.89
2017-06-20T15:46:40.593Z,26.84
2017-06-20T15:49:08.232Z,26.77
2017-06-20T15:51:35.784Z,26.73
2017-06-20T15:54:03.354Z,26.71
2017-06-20T15:56:30.975Z,26.73
2017-06-20T15:58:59.507Z,26.72
2017-06-20T16:01:27.213Z,26.53
2017-06-20T16:03:54.754Z,26.32
2017-06-20T16:06:22.313Z,26.32
2017-06-20T16:08:49.884Z,26.29
2017-06-20T16:11:17.429Z,26.21
2017-06-20T16:13:45.682Z,26.33
2017-06-20T16:16:14.163Z,26.26
2017-06-20T16:18:42.390Z,26.15
2017-06-20T16:21:18.089Z,26.19
2017-06-20T16:23:46.202Z,26.13
2017-06-20T16:26:14.290Z,26.11
2017-06-20T16:28:41.960Z,26.21
2017-06-20T16:31:09.553Z,26.03
2017-06-20T16:33:37.428Z,25.96
2017-06-20T16:36:04.978Z,25.90
2017-06-20T16:38:32.584Z,26.03
2017-06-20T16:41:03.657Z,26.06
2017-06-20T16:43:31.170Z,25.83
2017-06-20T16:45:59.029Z,25.85
2017-06-20T16:48:26.618Z,25.98
2017-06-20T16:50:54.292Z,25.99
2017-06-20T16:53:22.023Z,26.02
2017-06-20T16:55:49.534Z,25.90
2017-06-20T16:58:17.072Z,25.78
2017-06-20T17:00:52.379Z,25.77
2017-06-20T17:03:21.035Z,25.89
2017-06-20T17:05:49.925Z,25.94
2017-06-20T17:36:01.118Z,25.58
2017-06-20T17:38:28.617Z,25.62
2017-06-20T17:40:56.123Z,25.69
2017-06-20T17:43:23.700Z,25.63
2017-06-20T17:45:51.223Z,25.60
2017-06-20T17:48:18.744Z,25.52
2017-06-20T17:50:46.362Z,25.54
2017-06-20T17:53:13.869Z,25.55
2017-06-20T17:55:41.396Z,25.53
2017-06-20T17:58:08.951Z,25.53
2017-06-20T18:00:36.604Z,25.46
2017-06-20T18:03:04.109Z,25.48
2017-06-20T18:05:31.613Z,25.40
2017-06-20T18:07:59.218Z,25.38
2017-06-20T18:10:26.743Z,25.40
2017-06-20T18:12:54.264Z,25.37
2017-06-20T18:15:21.823Z,25.19
2017-06-20T18:17:49.338Z,25.20
2017-06-20T18:20:16.865Z,25.07
2017-06-20T18:22:44.569Z,25.05
2017-06-20T18:25:12.087Z,24.86
2017-06-20T18:27:39.604Z,24.38
2017-06-20T18:30:10.362Z,24.25
2017-06-20T18:32:37.901Z,24.17
2017-06-20T18:35:05.438Z,24.03
2017-06-20T18:37:33.141Z,23.99
2017-06-20T18:40:00.744Z,23.99
2017-06-20T18:42:28.321Z,24.09
2017-06-20T18:44:55.899Z,24.05
2017-06-20T18:47:23.660Z,24.08
2017-06-20T18:49:51.182Z,24.09
2017-06-20T18:52:18.742Z,23.95
2017-06-20T18:54:46.280Z,24.31
2017-06-20T18:57:13.859Z,24.10
2017-06-20T18:59:41.468Z,24.08
2017-06-20T19:02:09.045Z,24.04
2017-06-20T19:04:36.854Z,23.96
2017-06-20T19:07:04.390Z,24.05
2017-06-20T19:09:32.016Z,23.93
2017-06-20T19:11:59.646Z,24.18
2017-06-20T19:14:27.176Z,23.94
2017-06-20T19:16:54.738Z,23.93
2017-06-20T19:19:22.259Z,23.84
2017-06-20T19:21:49.769Z,23.76
2017-06-20T19:24:17.351Z,23.84
2017-06-20T19:26:44.978Z,23.81
2017-06-20T19:29:12.534Z,23.76
2017-06-20T19:31:40.148Z,23.76
2017-06-20T19:34:07.760Z,23.77
2017-06-20T19:36:35.282Z,23.77
2017-06-20T19:39:02.871Z,23.78
2017-06-20T19:41:30.406Z,23.77
2017-06-20T19:43:57.971Z,23.77
2017-06-20T19:46:25.546Z,23.78
2017-06-20T19:48:53.134Z,23.75
2017-06-20T19:51:20.665Z,23.84
2017-06-20T19:53:48.221Z,23.88
2017-06-20T19:56:15.748Z,23.78
2017-06-20T19:58:43.265Z,23.85
2017-06-20T20:01:10.857Z,23.68
2017-06-20T20:03:38.441Z,23.84
2017-06-20T20:06:06.034Z,23.58
2017-06-20T20:08:33.607Z,23.56
2017-06-20T20:11:01.167Z,23.69
2017-06-20T20:13:28.738Z,23.70
2017-06-20T20:15:56.376Z,23.67
2017-06-20T20:18:23.924Z,23.64
2017-06-20T20:20:51.504Z,23.68
2017-06-20T20:23:19.095Z,23.65
2017-06-20T20:25:46.680Z,23.63
2017-06-20T20:28:14.478Z,23.52
2017-06-20T20:30:42.041Z,23.29
2017-06-20T20:33:09.606Z,23.17
2017-06-20T20:35:37.129Z,23.27
2017-06-20T20:38:04.689Z,23.27
2017-06-20T20:40:32.669Z,23.26
2017-06-20T20:43:00.410Z,23.24
2017-06-20T20:45:28.181Z,23.23
2017-06-20T20:47:55.982Z,23.10
2017-06-20T20:50:23.510Z,22.86
2017-06-20T20:52:51.152Z,22.86
2017-06-20T20:55:18.671Z,22.88
2017-06-20T20:57:46.181Z,22.77
2017-06-20T21:00:14.276Z,22.75
2017-06-20T21:02:41.787Z,22.41
2017-06-20T21:05:09.301Z,22.29
2017-06-20T21:07:36.877Z,22.35
2017-06-20T21:10:04.433Z,22.08
2017-06-20T21:12:31.964Z,21.98
2017-06-20T21:14:59.549Z,21.99
2017-06-20T21:17:27.138Z,22.22
2017-06-20T21:19:54.669Z,22.28
2017-06-20T21:22:22.234Z,22.18
2017-06-20T21:24:49.770Z,22.26
2017-06-20T21:27:17.284Z,22.27
2017-06-20T21:29:44.956Z,22.08
2017-06-20T21:32:12.533Z,22.05
2017-06-20T21:34:40.097Z,22.02
2017-06-20T21:37:07.648Z,22.15
2017-06-20T21:39:35.223Z,21.87
2017-06-20T21:42:02.787Z,21.99
2017-06-20T21:44:30.349Z,22.05
2017-06-20T21:46:57.990Z,21.83
2017-06-20T21:49:25.561Z,21.90
2017-06-20T21:51:53.151Z,21.90
2017-06-20T21:54:20.722Z,21.60
2017-06-20T21:56:48.281Z,21.71
2017-06-20T21:59:15.818Z,21.68
2017-06-20T22:01:43.402Z,21.54
2017-06-20T22:04:10.908Z,21.42
2017-06-20T22:06:38.419Z,21.24
2017-06-20T22:09:06.037Z,21.50
2017-06-20T22:11:33.553Z,21.63
2017-06-20T22:14:01.086Z,21.50
2017-06-20T22:16:28.991Z,21.47
2017-06-20T22:18:56.489Z,21.63
2017-06-20T22:21:24.007Z,21.66
2017-06-20T22:23:51.626Z,21.49
2017-06-20T22:26:19.145Z,21.43
2017-06-20T22:28:46.938Z,21.25
2017-06-20T22:31:14.524Z,21.36
2017-06-20T22:33:42.099Z,21.16
2017-06-20T22:36:09.613Z,21.34
2017-06-20T22:38:37.256Z,21.37
2017-06-20T22:41:04.766Z,21.37
2017-06-20T22:43:32.275Z,21.36
2017-06-20T22:45:59.887Z,21.39
2017-06-20T22:48:27.440Z,21.35
2017-06-20T22:50:54.961Z,20.88
2017-06-20T22:53:22.560Z,20.65
2017-06-20T22:55:50.114Z,20.70
2017-06-20T22:58:17.716Z,20.98
2017-06-20T23:00:45.425Z,20.73
2017-06-20T23:03:12.940Z,21.03
2017-06-20T23:05:40.471Z,21.01
2017-06-20T23:08:08.051Z,21.03
2017-06-20T23:10:35.575Z,20.79
2017-06-20T23:13:03.088Z,20.74
2017-06-20T23:15:30.671Z,20.74
2017-06-20T23:17:58.198Z,20.62
2017-06-20T23:20:25.733Z,20.59
2017-06-20T23:22:53.308Z,20.42
2017-06-20T23:25:20.826Z,20.45
2017-06-20T23:27:48.334Z,20.30
2017-06-20T23:30:16.046Z,20.46
2017-06-20T23:32:43.587Z,20.69
2017-06-20T23:35:11.109Z,20.61
2017-06-20T23:37:38.680Z,20.75
2017-06-20T23:40:06.221Z,20.64
2017-06-20T23:42:33.720Z,20.66
2017-06-20T23:45:01.324Z,20.66
2017-06-20T23:47:29.211Z,20.40
2017-06-20T23:49:56.779Z,20.57
2017-06-20T23:52:24.385Z,20.45
2017-06-20T23:54:51.896Z,19.89
2017-06-20T23:57:19.462Z,19.88
2017-06-20T23:59:47.065Z,20.03
